Latest Weather Observations for Maningrida Airport

IDD60801

Issued at 7:31 am CST Saturday 13 February 2016 (issued every 30 minutes, with the page automatically refreshed every 10 minutes)

About weather observations | Map of weather stations | Latest weather observations for NT | Other Formats
Station Details ID: 014405 Name: MANINGRIDA AIRPORT Lat: -12.06 Lon: 134.23 Height: 28.1 m
Data from the previous 72 hours. | See also: Recent months at Maningrida Airport
Date/Time
CST
Temp
°C
App
Temp
°C
Dew
Point
Rel
Hum
%
Delta-T
°C
Wind Press
QNH
hPa
Press
MSL
hPa
Rain
since 9 am
mm
Dir
 
Spd
km/h
Gust
km/h
Spd
kts
Gust
kts
13/07:30am 27.0 33.0 26.1 95 0.6 SSW 6 9 3 5 1008.1 1007.9 0.0
13/07:00am 26.7 32.5 26.0 96 0.5 SW 7 9 4 5 1008.2 1008.0 0.0
13/06:30am 26.5 32.7 25.8 96 0.5 SSW 4 6 2 3 1008.0 1007.8 0.0
13/06:00am 26.3 33.1 25.6 96 0.5 CALM 0 6 0 3 1008.1 1007.9 0.0
13/05:30am 26.4 32.2 25.7 96 0.5 S 6 7 3 4 1007.6 1007.4 0.0
13/05:00am 26.3 32.8 25.6 96 0.5 S 2 7 1 4 1007.3 1007.1 0.0
13/04:30am 26.4 32.1 25.9 97 0.4 SSE 7 9 4 5 1006.9 1006.7 0.0
13/04:00am 26.6 32.5 25.9 96 0.5 SSE 6 9 3 5 1006.7 1006.5 0.0
13/03:30am 26.7 32.7 26.0 96 0.5 SSE 6 7 3 4 1006.9 1006.7 0.0
13/03:00am 26.7 32.7 26.0 96 0.5 SSW 6 7 3 4 1006.4 1006.2 0.0
13/02:30am 26.8 32.6 26.1 96 0.5 SSW 7 9 4 5 1006.1 1005.9 0.0
13/02:00am 27.0 33.0 26.1 95 0.6 SSW 6 9 3 5 1006.6 1006.4 0.0
13/01:30am 27.1 34.1 25.9 93 0.8 CALM 0 0 0 0 1007.4 1007.2 0.0
13/01:00am 27.1 34.1 25.9 93 0.8 CALM 0 4 0 2 1007.7 1007.5 0.0
13/12:30am 27.1 33.0 25.9 93 0.8 SE 6 7 3 4 1008.1 1007.9 0.0
13/12:00am 27.3 34.3 25.9 92 1.0 CALM 0 0 0 0 1008.1 1007.9 0.0
 
Date/Time
CST
Temp
°C
App
Temp
°C
Dew
Point
Rel
Hum
%
Delta-T
°C
Wind Press
QNH
hPa
Press
MSL
hPa
Rain
since 9 am
mm
Dir
 
Spd
km/h
Gust
km/h
Spd
kts
Gust
kts
12/11:30pm 27.0 32.6 25.8 93 0.8 SSE 7 11 4 6 1008.1 1007.9 0.0
12/11:00pm 27.0 31.7 25.6 92 1.0 S 11 15 6 8 1008.0 1007.8 0.0
12/10:30pm 28.0 32.5 25.2 85 2.0 S 11 17 6 9 1008.1 1007.9 0.0
12/10:00pm 28.2 32.7 25.2 84 2.1 S 11 17 6 9 1008.0 1007.8 0.0
12/09:30pm 28.7 34.7 25.5 83 2.3 S 4 15 2 8 1007.8 1007.6 0.0
12/09:00pm 29.0 34.8 25.8 83 2.3 SW 6 7 3 4 1007.8 1007.6 0.0
12/08:30pm 29.1 34.7 25.5 81 2.5 W 6 9 3 5 1007.2 1007.0 0.0
12/08:00pm 29.3 34.7 25.5 80 2.7 WNW 7 11 4 6 1006.6 1006.4 0.0
12/07:30pm 29.3 34.5 25.1 78 3.0 WNW 7 11 4 6 1006.0 1005.8 0.0
12/07:00pm 29.5 34.0 24.6 75 3.4 WNW 9 17 5 9 1006.4 1006.2 0.0
12/06:30pm 29.8 34.0 25.3 77 3.2 WNW 13 20 7 11 1006.3 1006.1 0.0
12/06:00pm 30.0 33.0 25.5 77 3.2 NNW 20 28 11 15 1005.5 1005.3 0.0
12/05:30pm 30.9 34.4 26.8 79 3.0 NNW 22 28 12 15 1005.2 1005.0 0.0
12/05:00pm 31.1 34.5 26.1 75 3.6 N 20 28 11 15 1005.1 1004.9 0.0
12/04:30pm 31.0 34.1 25.4 72 4.0 N 19 24 10 13 1005.1 1004.9 0.0
12/04:00pm 32.1 35.5 26.2 71 4.2 N 20 24 11 13 1005.1 1004.9 0.0
12/03:30pm 31.9 35.9 26.7 74 3.8 N 19 26 10 14 1005.1 1004.9 0.0
12/03:00pm 31.5 34.8 25.1 69 4.5 NNW 17 20 9 11 1004.9 1004.7 0.0
12/02:30pm 32.7 38.0 25.8 67 4.9 NE 9 15 5 8 1005.3 1005.1 0.0
12/02:00pm 31.5 34.7 24.4 66 5.0 SE 15 19 8 10 1005.8 1005.6 0.0
12/01:30pm 31.7 37.1 26.0 72 4.1 S 9 11 5 6 1006.0 1005.8 0.0
12/01:00pm 32.3 37.1 25.1 65 5.1 NNW 9 15 5 8 1006.6 1006.4 0.0
12/12:30pm 32.1 35.8 25.2 67 4.9 NNW 15 20 8 11 1006.8 1006.6 0.0
12/12:00pm 32.0 36.5 25.8 69 4.4 NNW 13 17 7 9 1007.3 1007.1 0.0
12/11:30am 32.0 36.9 27.0 75 3.6 NNW 15 20 8 11 1007.8 1007.6 0.0
12/11:00am 31.3 36.1 26.3 75 3.6 NNW 13 17 7 9 1008.0 1007.8 0.0
12/10:30am 31.3 36.4 26.1 74 3.7 NNW 11 17 6 9 1008.2 1008.0 0.0
12/10:00am 30.9 36.6 26.4 77 3.2 NNW 9 20 5 11 1008.6 1008.4 0.0
12/09:30am 30.8 35.9 24.7 70 4.3 ENE 6 7 3 4 1008.6 1008.4 0.0
12/09:00am 30.1 35.9 25.2 75 3.5 E 4 7 2 4 1008.5 1008.3 13.0
12/08:30am 28.7 35.5 25.5 83 2.3 CALM 0 6 0 3 1008.6 1008.4 13.0
12/08:00am 27.5 34.3 25.5 89 1.4 CALM 0 0 0 0 1008.4 1008.2 13.0
12/07:30am 26.7 33.6 25.7 94 0.7 CALM 0 0 0 0 1008.3 1008.1 13.0
12/07:00am 26.1 32.4 25.4 96 0.5 S 2 7 1 4 1007.6 1007.4 13.0
12/06:30am 26.0 31.1 25.5 97 0.4 SSE 9 11 5 6 1007.3 1007.1 13.0
12/06:00am 26.1 31.4 25.8 98 0.2 SE 9 11 5 6 1007.1 1006.9 13.0
12/05:30am 25.8 31.3 25.3 97 0.4 SW 6 7 3 4 1007.1 1006.9 13.0
12/05:00am 25.6 31.6 24.9 96 0.5 SSE 2 6 1 3 1007.0 1006.8 13.0
12/04:30am 25.7 32.3 25.2 97 0.3 CALM 0 0 0 0 1006.8 1006.6 13.0
12/04:00am 25.7 31.0 25.2 97 0.3 SE 7 9 4 5 1006.4 1006.2 13.0
12/03:30am 25.4 30.9 24.7 96 0.5 ENE 4 7 2 4 1006.3 1006.1 12.8
12/03:00am 25.5 31.2 25.0 97 0.3 NW 4 9 2 5 1006.1 1005.9 12.8
12/02:30am 25.3 30.4 24.6 96 0.5 NNW 6 11 3 6 1006.3 1006.1 11.8
12/02:00am 26.7 32.0 25.8 95 0.6 NE 9 13 5 7 1006.9 1006.7 3.6
12/01:30am 26.9 30.9 25.1 90 1.3 S 13 20 7 11 1006.7 1006.5 0.0
12/01:15am 27.6 32.2 25.4 88 1.5 SSE 11 20 6 11 1006.7 1006.5 0.0
12/01:05am 27.6 32.2 26.0 91 1.1 SE 13 17 7 9 1006.8 1006.6 0.0
12/01:04am 27.6 32.1 25.8 90 1.3 SE 13 17 7 9 1006.8 1006.6 0.0
12/01:00am 27.6 32.1 25.8 90 1.3 SE 13 17 7 9 1006.9 1006.7 0.0
12/12:39am 27.6 33.1 25.6 89 1.4 E 7 13 4 7 1007.2 1007.0 0.0
12/12:30am 27.7 32.8 26.1 91 1.1 ESE 11 15 6 8 1007.3 1007.1 0.0
12/12:00am 28.0 35.4 26.4 91 1.1 CALM 0 0 0 0 1007.8 1007.6 0.0
 
Date/Time
CST
Temp
°C
App
Temp
°C
Dew
Point
Rel
Hum
%
Delta-T
°C
Wind Press
QNH
hPa
Press
MSL
hPa
Rain
since 9 am
mm
Dir
 
Spd
km/h
Gust
km/h
Spd
kts
Gust
kts
11/11:30pm 28.2 34.8 26.4 90 1.3 SW 4 7 2 4 1007.9 1007.7 0.0
11/11:00pm 28.8 35.4 26.4 87 1.7 NW 4 7 2 4 1007.8 1007.6 0.0
11/10:30pm 29.1 34.9 26.1 84 2.1 NW 7 9 4 5 1007.7 1007.5 0.0
11/10:00pm 28.8 34.8 26.0 85 2.0 WNW 6 9 3 5 1007.6 1007.4 0.0
11/09:30pm 28.8 35.4 25.8 84 2.1 NW 2 7 1 4 1007.0 1006.8 0.0
11/09:00pm 29.1 35.2 25.7 82 2.4 WNW 4 7 2 4 1006.9 1006.7 0.0
11/08:30pm 29.3 34.4 25.5 80 2.7 NW 9 15 5 8 1006.6 1006.4 0.0
11/08:00pm 29.5 33.7 25.3 78 3.0 NW 13 19 7 10 1005.9 1005.7 0.0
11/07:30pm 29.4 32.9 25.4 79 2.8 NNW 17 22 9 12 1005.6 1005.4 0.0
11/07:00pm 29.7 33.6 25.4 78 3.0 NNW 15 19 8 10 1005.4 1005.2 0.0
11/06:30pm 30.0 33.5 24.9 74 3.6 N 15 20 8 11 1004.4 1004.2 0.0
11/06:00pm 30.5 34.0 24.9 72 3.9 N 15 20 8 11 1004.5 1004.3 0.0
11/05:30pm 30.6 33.6 24.7 71 4.1 N 17 24 9 13 1004.3 1004.1 0.0
11/05:00pm 30.7 34.0 25.1 72 3.9 N 17 22 9 12 1004.0 1003.8 0.0
11/04:30pm 30.6 34.1 25.4 74 3.7 N 17 24 9 13 1003.8 1003.6 0.0
11/04:00pm 30.5 33.5 24.6 70 4.1 N 17 24 9 13 1003.8 1003.6 0.0
11/03:30pm 30.9 34.5 25.0 71 4.2 NNE 15 22 8 12 1003.6 1003.4 0.0
11/03:00pm 30.6 33.0 24.3 69 4.4 N 19 22 10 12 1003.7 1003.5 0.0
11/02:30pm 30.9 34.2 25.7 74 3.7 N 19 22 10 12 1004.0 1003.8 0.0
11/02:00pm 30.4 33.1 24.8 72 3.9 N 19 24 10 13 1004.5 1004.3 0.0
11/01:30pm 30.4 33.5 24.8 72 3.9 N 17 20 9 11 1005.0 1004.8 0.0
11/01:00pm 30.5 33.7 24.9 72 3.9 N 17 22 9 12 1005.4 1005.2 0.0
11/12:30pm 30.6 33.3 24.7 71 4.1 NNW 19 24 10 13 1005.8 1005.6 0.0
11/12:00pm 30.5 34.6 25.8 76 3.3 NNW 15 20 8 11 1006.2 1006.0 0.0
11/11:30am 29.9 33.6 24.5 73 3.8 NNW 13 17 7 9 1006.6 1006.4 0.0
11/11:00am 30.5 35.0 23.9 68 4.6 WNW 7 11 4 6 1006.9 1006.7 0.0
11/10:30am 29.6 33.5 24.2 73 3.8 NNW 11 15 6 8 1007.1 1006.9 0.0
11/10:00am 29.6 34.2 24.2 73 3.8 S 7 11 4 6 1007.3 1007.1 0.0
11/09:30am 29.0 33.1 23.2 71 4.0 SSW 7 11 4 6 1007.7 1007.5 0.0
11/09:00am 28.5 33.2 23.9 76 3.2 S 6 11 3 6 1007.6 1007.4 10.6
11/08:30am 27.8 30.8 24.0 80 2.6 SE 15 17 8 9 1007.4 1007.2 10.6
11/08:00am 27.0 31.1 24.5 86 1.7 SE 11 15 6 8 1007.2 1007.0 10.6
11/07:30am 25.6 30.4 24.4 93 0.8 SE 7 9 4 5 1006.8 1006.6 10.6
11/07:00am 24.8 29.5 24.3 97 0.3 SE 7 9 4 5 1006.5 1006.3 10.6
11/06:30am 24.8 29.5 24.3 97 0.3 SW 7 7 4 4 1006.5 1006.3 10.6
11/06:00am 24.8 29.7 24.3 97 0.3 SW 6 7 3 4 1006.3 1006.1 10.6
11/05:30am 24.8 30.7 24.1 96 0.5 CALM 0 0 0 0 1006.3 1006.1 10.6
11/05:00am 24.8 29.6 24.1 96 0.5 WSW 6 11 3 6 1005.9 1005.7 10.6
11/04:30am 24.8 29.4 24.1 96 0.5 SW 7 11 4 6 1005.4 1005.2 10.6
11/04:00am 24.9 29.7 24.2 96 0.5 WSW 6 9 3 5 1005.3 1005.1 10.6
11/03:30am 24.9 29.7 24.2 96 0.5 W 6 7 3 4 1005.3 1005.1 10.6
11/03:00am 25.0 30.0 24.5 97 0.3 WSW 6 9 3 5 1005.5 1005.3 10.6
11/02:30am 24.9 29.7 24.4 97 0.3 WSW 7 9 4 5 1005.8 1005.6 10.6
11/02:00am 25.0 31.1 24.5 97 0.3 CALM 0 0 0 0 1005.8 1005.6 10.6
11/01:30am 24.8 30.7 24.1 96 0.5 CALM 0 0 0 0 1006.1 1005.9 10.6
11/01:00am 24.7 29.3 24.2 97 0.3 W 7 9 4 5 1006.7 1006.5 10.6
11/12:30am 24.9 30.0 24.6 98 0.2 W 6 9 3 5 1007.3 1007.1 10.6
11/12:00am 24.8 29.6 24.5 98 0.2 WSW 7 11 4 6 1007.7 1007.5 10.6
 
Date/Time
CST
Temp
°C
App
Temp
°C
Dew
Point
Rel
Hum
%
Delta-T
°C
Wind Press
QNH
hPa
Press
MSL
hPa
Rain
since 9 am
mm
Dir
 
Spd
km/h
Gust
km/h
Spd
kts
Gust
kts
10/11:30pm 24.9 29.4 24.6 98 0.2 SW 9 15 5 8 1007.7 1007.5 10.6
10/11:00pm 24.9 29.7 24.4 97 0.3 SW 7 9 4 5 1007.5 1007.3 10.4
10/10:30pm 25.1 31.3 24.6 97 0.3 CALM 0 6 0 3 1008.0 1007.8 10.2
10/10:00pm 25.1 30.0 24.6 97 0.3 SW 7 11 4 6 1008.2 1008.0 9.6
10/09:30pm 25.1 30.8 24.4 96 0.5 ESE 2 6 1 3 1007.9 1007.7 8.8
10/09:00pm 25.2 31.0 24.5 96 0.5 E 2 7 1 4 1008.4 1008.2 8.4
10/08:30pm 25.2 30.5 24.3 95 0.6 E 4 6 2 3 1008.3 1008.1 7.8
10/08:00pm 25.3 29.7 24.4 95 0.6 NE 9 11 5 6 1007.8 1007.6 6.0
10/07:59pm 25.5 30.1 24.8 96 0.5 NE 9 11 5 6 1007.8 1007.6 6.0
10/07:30pm 25.4 30.5 24.9 97 0.3 SSE 7 9 4 5 1007.0 1006.8 4.6
10/07:09pm 25.5 30.6 25.0 97 0.3 SSW 7 11 4 6 1006.7 1006.5 4.2
10/07:00pm 25.4 30.1 24.9 97 0.3 SW 9 15 5 8 1006.4 1006.2 3.8
10/06:30pm 25.7 30.4 25.0 96 0.5 WSW 9 13 5 7 1005.6 1005.4 2.6
10/06:04pm 25.7 29.0 24.5 93 0.8 SSE 15 20 8 11 1005.2 1005.0 0.8
10/06:00pm 25.8 29.2 24.6 93 0.8 SSE 15 20 8 11 1005.2 1005.0 0.8
10/05:32pm 26.6 30.6 24.4 88 1.5 SSW 11 17 6 9 1005.1 1004.9 0.2
10/05:30pm 26.5 30.4 24.2 87 1.6 SSW 11 20 6 11 1005.0 1004.8 0.2
10/05:00pm 26.9 28.9 23.6 82 2.3 SSE 19 30 10 16 1003.9 1003.7 0.2
10/04:30pm 30.0 33.3 25.1 75 3.5 NW 17 26 9 14 1003.0 1002.8 0.2
10/04:27pm 29.9 32.7 25.0 75 3.4 NW 19 28 10 15 1002.9 1002.7 0.2
10/04:07pm 31.2 33.2 24.6 68 4.6 NW 22 35 12 19 1002.5 1002.3 0.2
10/04:00pm 31.7 33.8 25.3 69 4.5 NW 24 35 13 19 1002.5 1002.3 0.2
10/03:30pm 32.0 33.3 26.5 72 4.0 NNW 32 37 17 20 1002.7 1002.5 0.2
10/03:00pm 32.0 35.0 27.2 76 3.5 NNW 26 33 14 18 1003.1 1002.9 0.2
10/02:30pm 31.7 35.4 27.2 77 3.3 N 22 30 12 16 1003.5 1003.3 0.2
10/02:00pm 32.4 36.2 26.5 71 4.2 NNW 19 28 10 15 1004.1 1003.9 0.2
10/01:30pm 33.6 37.6 25.0 60 6.1 WNW 13 24 7 13 1004.7 1004.5 0.2
10/01:00pm 33.3 37.1 24.7 60 6.1 W 13 19 7 10 1005.3 1005.1 0.2
10/12:30pm 33.0 37.1 24.5 61 6.0 WSW 11 20 6 11 1005.8 1005.6 0.2
10/12:00pm 32.5 34.9 23.7 59 6.1 W 17 28 9 15 1006.2 1006.0 0.2
10/11:30am 31.6 35.3 24.5 66 5.0 W 13 24 7 13 1006.5 1006.3 0.2
10/11:00am 31.7 35.2 24.8 67 4.9 WSW 15 24 8 13 1006.8 1006.6 0.2
10/10:30am 31.2 34.6 24.6 68 4.6 WSW 15 24 8 13 1007.0 1006.8 0.2
10/10:00am 30.5 34.4 24.9 72 3.9 W 13 17 7 9 1007.3 1007.1 0.2
10/09:30am 29.7 33.8 24.6 74 3.6 WSW 11 19 6 10 1007.6 1007.4 0.2
10/09:00am 29.1 33.4 24.2 75 3.4 W 9 17 5 9 1007.5 1007.3 44.6
10/08:30am 27.6 32.2 24.2 82 2.4 WSW 7 11 4 6 1007.4 1007.2 44.6
10/08:00am 27.0 31.8 24.5 86 1.7 WSW 7 15 4 8 1007.2 1007.0 44.6

Other Formats:

Comma delimited format used in spreadsheet applications
http://www.bom.gov.au/fwo/IDD60801/IDD60801.95142.axf

JavaScript Object Notation format (JSON) in row-major order
http://www.bom.gov.au/fwo/IDD60801/IDD60801.95142.json